sensor_id;sensor_type;location;lat;lon;timestamp;temperature;humidity
14737;DHT22;7459;53.590;10.062;2022-12-01T00:01:06;5.00;99.90
14737;DHT22;7459;53.590;10.062;2022-12-01T00:03:32;5.00;99.90
14737;DHT22;7459;53.590;10.062;2022-12-01T00:06:03;5.00;99.90
14737;DHT22;7459;53.590;10.062;2022-12-01T00:08:31;5.00;99.90
14737;DHT22;7459;53.590;10.062;2022-12-01T00:11:05;5.00;99.90
14737;DHT22;7459;53.590;10.062;2022-12-01T00:13:36;5.00;99.90
14737;DHT22;7459;53.590;10.062;2022-12-01T00:16:12;5.00;99.90
14737;DHT22;7459;53.590;10.062;2022-12-01T00:18:41;5.00;99.90
14737;DHT22;7459;53.590;10.062;2022-12-01T00:21:14;5.00;99.90
14737;DHT22;7459;53.590;10.062;2022-12-01T00:23:45;5.00;99.90
14737;DHT22;7459;53.590;10.062;2022-12-01T00:26:13;5.00;99.90
14737;DHT22;7459;53.590;10.062;2022-12-01T00:28:39;5.00;99.90
14737;DHT22;7459;53.590;10.062;2022-12-01T00:31:11;5.00;99.90
14737;DHT22;7459;53.590;10.062;2022-12-01T00:33:38;5.00;99.90
14737;DHT22;7459;53.590;10.062;2022-12-01T00:36:04;5.00;99.90
14737;DHT22;7459;53.590;10.062;2022-12-01T00:38:31;5.00;99.90
14737;DHT22;7459;53.590;10.062;2022-12-01T00:40:57;5.00;99.90
14737;DHT22;7459;53.590;10.062;2022-12-01T00:43:23;5.00;99.90
14737;DHT22;7459;53.590;10.062;2022-12-01T00:45:49;5.00;99.90
14737;DHT22;7459;53.590;10.062;2022-12-01T00:48:15;5.00;99.90
14737;DHT22;7459;53.590;10.062;2022-12-01T00:50:42;5.00;99.90
14737;DHT22;7459;53.590;10.062;2022-12-01T00:53:08;5.00;99.90
14737;DHT22;7459;53.590;10.062;2022-12-01T00:55:34;5.00;99.90
14737;DHT22;7459;53.590;10.062;2022-12-01T00:58:00;5.00;99.90
14737;DHT22;7459;53.590;10.062;2022-12-01T01:00:25;4.90;99.90
14737;DHT22;7459;53.590;10.062;2022-12-01T01:02:51;5.00;99.90
14737;DHT22;7459;53.590;10.062;2022-12-01T01:05:17;5.00;99.90
14737;DHT22;7459;53.590;10.062;2022-12-01T01:07:43;5.00;99.90
14737;DHT22;7459;53.590;10.062;2022-12-01T01:10:09;4.90;99.90
14737;DHT22;7459;53.590;10.062;2022-12-01T01:12:35;5.00;99.90
14737;DHT22;7459;53.590;10.062;2022-12-01T01:15:01;5.00;99.90
14737;DHT22;7459;53.590;10.062;2022-12-01T01:17:26;5.00;99.90
14737;DHT22;7459;53.590;10.062;2022-12-01T01:19:52;5.00;99.90
14737;DHT22;7459;53.590;10.062;2022-12-01T01:22:18;4.90;99.90
14737;DHT22;7459;53.590;10.062;2022-12-01T01:24:44;4.90;99.90
14737;DHT22;7459;53.590;10.062;2022-12-01T01:27:10;4.90;99.90
14737;DHT22;7459;53.590;10.062;2022-12-01T01:29:36;4.90;99.90
14737;DHT22;7459;53.590;10.062;2022-12-01T01:32:01;5.00;99.90
14737;DHT22;7459;53.590;10.062;2022-12-01T01:34:28;4.90;99.90
14737;DHT22;7459;53.590;10.062;2022-12-01T01:36:54;4.90;99.90
14737;DHT22;7459;53.590;10.062;2022-12-01T01:39:20;4.90;99.90
14737;DHT22;7459;53.590;10.062;2022-12-01T01:41:46;4.90;99.90
14737;DHT22;7459;53.590;10.062;2022-12-01T01:47:35;4.90;99.90
14737;DHT22;7459;53.590;10.062;2022-12-01T01:50:07;4.90;99.90
14737;DHT22;7459;53.590;10.062;2022-12-01T01:52:37;4.90;99.90
14737;DHT22;7459;53.590;10.062;2022-12-01T01:55:06;4.90;99.90
14737;DHT22;7459;53.590;10.062;2022-12-01T01:57:33;4.90;99.90
14737;DHT22;7459;53.590;10.062;2022-12-01T02:00:15;4.90;99.90
14737;DHT22;7459;53.590;10.062;2022-12-01T02:02:44;4.90;99.90
14737;DHT22;7459;53.590;10.062;2022-12-01T02:05:27;4.90;99.90
14737;DHT22;7459;53.590;10.062;2022-12-01T02:07:56;4.90;99.90
14737;DHT22;7459;53.590;10.062;2022-12-01T02:10:44;4.90;99.90
14737;DHT22;7459;53.590;10.062;2022-12-01T02:16:11;4.90;99.90
14737;DHT22;7459;53.590;10.062;2022-12-01T02:19:08;4.90;99.90
14737;DHT22;7459;53.590;10.062;2022-12-01T02:34:35;4.90;99.90
14737;DHT22;7459;53.590;10.062;2022-12-01T02:37:22;4.90;99.90
14737;DHT22;7459;53.590;10.062;2022-12-01T02:40:02;4.80;99.90
14737;DHT22;7459;53.590;10.062;2022-12-01T02:42:47;4.90;99.90
14737;DHT22;7459;53.590;10.062;2022-12-01T02:45:35;4.80;99.90
14737;DHT22;7459;53.590;10.062;2022-12-01T02:48:23;4.80;99.90
14737;DHT22;7459;53.590;10.062;2022-12-01T02:50:54;4.80;99.90
14737;DHT22;7459;53.590;10.062;2022-12-01T02:53:23;4.80;99.90
14737;DHT22;7459;53.590;10.062;2022-12-01T02:55:52;4.80;99.90
14737;DHT22;7459;53.590;10.062;2022-12-01T02:58:19;4.80;99.90
14737;DHT22;7459;53.590;10.062;2022-12-01T03:07:09;4.80;99.90
14737;DHT22;7459;53.590;10.062;2022-12-01T03:12:32;4.90;99.90
14737;DHT22;7459;53.590;10.062;2022-12-01T03:15:24;4.90;99.90
14737;DHT22;7459;53.590;10.062;2022-12-01T03:21:11;4.80;99.90
14737;DHT22;7459;53.590;10.062;2022-12-01T03:23:43;4.80;99.90
14737;DHT22;7459;53.590;10.062;2022-12-01T03:26:15;4.80;99.90
14737;DHT22;7459;53.590;10.062;2022-12-01T03:28:46;4.80;99.90
14737;DHT22;7459;53.590;10.062;2022-12-01T03:31:23;4.80;99.90
14737;DHT22;7459;53.590;10.062;2022-12-01T03:34:01;4.80;99.90
14737;DHT22;7459;53.590;10.062;2022-12-01T03:36:32;4.80;99.90
14737;DHT22;7459;53.590;10.062;2022-12-01T03:39:03;4.80;99.90
14737;DHT22;7459;53.590;10.062;2022-12-01T03:41:38;4.80;99.90
14737;DHT22;7459;53.590;10.062;2022-12-01T03:44:19;4.80;99.90
14737;DHT22;7459;53.590;10.062;2022-12-01T03:46:49;4.80;99.90
14737;DHT22;7459;53.590;10.062;2022-12-01T03:49:19;4.80;99.90
14737;DHT22;7459;53.590;10.062;2022-12-01T03:54:41;4.80;99.90
14737;DHT22;7459;53.590;10.062;2022-12-01T03:57:33;4.80;99.90
14737;DHT22;7459;53.590;10.062;2022-12-01T04:00:04;4.70;99.90
14737;DHT22;7459;53.590;10.062;2022-12-01T04:02:31;4.80;99.90
14737;DHT22;7459;53.590;10.062;2022-12-01T04:04:57;4.80;99.90
14737;DHT22;7459;53.590;10.062;2022-12-01T04:07:22;4.70;99.90
14737;DHT22;7459;53.590;10.062;2022-12-01T04:09:48;4.70;99.90
14737;DHT22;7459;53.590;10.062;2022-12-01T04:12:14;4.70;99.90
14737;DHT22;7459;53.590;10.062;2022-12-01T04:14:56;4.70;99.90
14737;DHT22;7459;53.590;10.062;2022-12-01T04:17:22;4.70;99.90
14737;DHT22;7459;53.590;10.062;2022-12-01T04:19:48;4.70;99.90
14737;DHT22;7459;53.590;10.062;2022-12-01T04:22:17;4.70;99.90
14737;DHT22;7459;53.590;10.062;2022-12-01T04:24:43;4.70;99.90
14737;DHT22;7459;53.590;10.062;2022-12-01T04:27:09;4.70;99.90
14737;DHT22;7459;53.590;10.062;2022-12-01T04:29:35;4.70;99.90
14737;DHT22;7459;53.590;10.062;2022-12-01T04:32:01;4.70;99.90
14737;DHT22;7459;53.590;10.062;2022-12-01T04:34:26;4.70;99.90
14737;DHT22;7459;53.590;10.062;2022-12-01T04:36:52;4.70;99.90
14737;DHT22;7459;53.590;10.062;2022-12-01T04:39:18;4.70;99.90
14737;DHT22;7459;53.590;10.062;2022-12-01T04:41:43;4.70;99.90
14737;DHT22;7459;53.590;10.062;2022-12-01T04:44:09;4.70;99.90
14737;DHT22;7459;53.590;10.062;2022-12-01T04:46:36;4.70;99.90
14737;DHT22;7459;53.590;10.062;2022-12-01T04:49:03;4.70;99.90
14737;DHT22;7459;53.590;10.062;2022-12-01T04:51:29;4.70;99.90
14737;DHT22;7459;53.590;10.062;2022-12-01T04:53:55;4.70;99.90
14737;DHT22;7459;53.590;10.062;2022-12-01T04:56:21;4.60;99.90
14737;DHT22;7459;53.590;10.062;2022-12-01T04:58:47;4.60;99.90
14737;DHT22;7459;53.590;10.062;2022-12-01T05:01:14;4.70;99.90
14737;DHT22;7459;53.590;10.062;2022-12-01T05:03:45;4.70;99.90
14737;DHT22;7459;53.590;10.062;2022-12-01T05:06:22;4.70;99.90
14737;DHT22;7459;53.590;10.062;2022-12-01T05:08:49;4.70;99.90
14737;DHT22;7459;53.590;10.062;2022-12-01T05:11:16;4.70;99.90
14737;DHT22;7459;53.590;10.062;2022-12-01T05:13:44;4.70;99.90
14737;DHT22;7459;53.590;10.062;2022-12-01T05:16:17;4.70;99.90
14737;DHT22;7459;53.590;10.062;2022-12-01T05:18:50;4.70;99.90
14737;DHT22;7459;53.590;10.062;2022-12-01T05:21:37;4.70;99.90
14737;DHT22;7459;53.590;10.062;2022-12-01T05:24:04;4.60;99.90
14737;DHT22;7459;53.590;10.062;2022-12-01T05:26:30;4.60;99.90
14737;DHT22;7459;53.590;10.062;2022-12-01T05:28:55;4.60;99.90
14737;DHT22;7459;53.590;10.062;2022-12-01T05:31:21;4.60;99.90
14737;DHT22;7459;53.590;10.062;2022-12-01T05:33:47;4.60;99.90
14737;DHT22;7459;53.590;10.062;2022-12-01T05:36:13;4.60;99.90
14737;DHT22;7459;53.590;10.062;2022-12-01T05:38:38;4.60;99.90
14737;DHT22;7459;53.590;10.062;2022-12-01T05:41:04;4.60;99.90
14737;DHT22;7459;53.590;10.062;2022-12-01T05:43:30;4.70;99.90
14737;DHT22;7459;53.590;10.062;2022-12-01T05:45:56;4.70;99.90
14737;DHT22;7459;53.590;10.062;2022-12-01T05:48:23;4.60;99.90
14737;DHT22;7459;53.590;10.062;2022-12-01T05:50:49;4.60;99.90
14737;DHT22;7459;53.590;10.062;2022-12-01T05:53:15;4.60;99.90
14737;DHT22;7459;53.590;10.062;2022-12-01T05:55:41;4.70;99.90
14737;DHT22;7459;53.590;10.062;2022-12-01T05:58:08;4.70;99.90
14737;DHT22;7459;53.590;10.062;2022-12-01T06:00:34;4.70;99.90
14737;DHT22;7459;53.590;10.062;2022-12-01T06:03:00;4.60;99.90
14737;DHT22;7459;53.590;10.062;2022-12-01T06:05:26;4.60;99.90
14737;DHT22;7459;53.590;10.062;2022-12-01T06:07:52;4.60;99.90
14737;DHT22;7459;53.590;10.062;2022-12-01T06:10:18;4.60;99.90
14737;DHT22;7459;53.590;10.062;2022-12-01T06:12:44;4.60;99.90
14737;DHT22;7459;53.590;10.062;2022-12-01T06:15:11;4.60;99.90
14737;DHT22;7459;53.590;10.062;2022-12-01T06:17:37;4.60;99.90
14737;DHT22;7459;53.590;10.062;2022-12-01T06:20:04;4.60;99.90
14737;DHT22;7459;53.590;10.062;2022-12-01T06:22:30;4.60;99.90
14737;DHT22;7459;53.590;10.062;2022-12-01T06:24:56;4.60;99.90
14737;DHT22;7459;53.590;10.062;2022-12-01T06:27:22;4.60;99.90
14737;DHT22;7459;53.590;10.062;2022-12-01T06:29:47;4.60;99.90
14737;DHT22;7459;53.590;10.062;2022-12-01T06:32:14;4.60;99.90
14737;DHT22;7459;53.590;10.062;2022-12-01T06:34:41;4.60;99.90
14737;DHT22;7459;53.590;10.062;2022-12-01T06:37:08;4.60;99.90
14737;DHT22;7459;53.590;10.062;2022-12-01T06:39:34;4.60;99.90
14737;DHT22;7459;53.590;10.062;2022-12-01T06:42:00;4.60;99.90
14737;DHT22;7459;53.590;10.062;2022-12-01T06:44:26;4.60;99.90
14737;DHT22;7459;53.590;10.062;2022-12-01T06:46:52;4.60;99.90
14737;DHT22;7459;53.590;10.062;2022-12-01T06:49:18;4.60;99.90
14737;DHT22;7459;53.590;10.062;2022-12-01T06:51:44;4.60;99.90
14737;DHT22;7459;53.590;10.062;2022-12-01T06:54:11;4.60;99.90
14737;DHT22;7459;53.590;10.062;2022-12-01T06:56:37;4.60;99.90
14737;DHT22;7459;53.590;10.062;2022-12-01T06:59:03;4.60;99.90
14737;DHT22;7459;53.590;10.062;2022-12-01T07:01:29;4.60;99.90
14737;DHT22;7459;53.590;10.062;2022-12-01T07:03:54;4.50;99.90
14737;DHT22;7459;53.590;10.062;2022-12-01T07:06:20;4.50;99.90
14737;DHT22;7459;53.590;10.062;2022-12-01T07:08:46;4.50;99.90
14737;DHT22;7459;53.590;10.062;2022-12-01T07:11:13;4.50;99.90
14737;DHT22;7459;53.590;10.062;2022-12-01T07:13:41;4.50;99.90
14737;DHT22;7459;53.590;10.062;2022-12-01T07:16:10;4.50;99.90
14737;DHT22;7459;53.590;10.062;2022-12-01T07:18:35;4.50;99.90
14737;DHT22;7459;53.590;10.062;2022-12-01T07:21:03;4.50;99.90
14737;DHT22;7459;53.590;10.062;2022-12-01T07:23:31;4.50;99.90
14737;DHT22;7459;53.590;10.062;2022-12-01T07:25:59;4.50;99.90
14737;DHT22;7459;53.590;10.062;2022-12-01T07:28:29;4.50;99.90
14737;DHT22;7459;53.590;10.062;2022-12-01T07:31:15;4.50;99.90
14737;DHT22;7459;53.590;10.062;2022-12-01T07:33:42;4.50;99.90
14737;DHT22;7459;53.590;10.062;2022-12-01T07:36:08;4.60;99.90
14737;DHT22;7459;53.590;10.062;2022-12-01T07:38:36;4.50;99.90
14737;DHT22;7459;53.590;10.062;2022-12-01T07:41:05;4.60;99.90
14737;DHT22;7459;53.590;10.062;2022-12-01T07:43:33;4.50;99.90
14737;DHT22;7459;53.590;10.062;2022-12-01T07:46:10;4.50;99.90
14737;DHT22;7459;53.590;10.062;2022-12-01T07:48:39;4.60;99.90
14737;DHT22;7459;53.590;10.062;2022-12-01T07:51:10;4.50;99.90
14737;DHT22;7459;53.590;10.062;2022-12-01T07:53:38;4.50;99.90
14737;DHT22;7459;53.590;10.062;2022-12-01T07:56:04;4.50;99.90
14737;DHT22;7459;53.590;10.062;2022-12-01T07:58:30;4.50;99.90
14737;DHT22;7459;53.590;10.062;2022-12-01T08:00:56;4.50;99.90
14737;DHT22;7459;53.590;10.062;2022-12-01T08:03:22;4.50;99.90
14737;DHT22;7459;53.590;10.062;2022-12-01T08:05:59;4.50;99.90
14737;DHT22;7459;53.590;10.062;2022-12-01T08:08:26;4.50;99.90
14737;DHT22;7459;53.590;10.062;2022-12-01T08:10:53;4.50;99.90
14737;DHT22;7459;53.590;10.062;2022-12-01T08:13:19;4.50;99.90
14737;DHT22;7459;53.590;10.062;2022-12-01T08:15:45;4.50;99.90
14737;DHT22;7459;53.590;10.062;2022-12-01T08:18:10;4.50;99.90
14737;DHT22;7459;53.590;10.062;2022-12-01T08:20:36;4.50;99.90
14737;DHT22;7459;53.590;10.062;2022-12-01T08:23:02;4.50;99.90
14737;DHT22;7459;53.590;10.062;2022-12-01T08:25:29;4.50;99.90
14737;DHT22;7459;53.590;10.062;2022-12-01T08:27:55;4.50;99.90
14737;DHT22;7459;53.590;10.062;2022-12-01T08:30:22;4.50;99.90
14737;DHT22;7459;53.590;10.062;2022-12-01T08:32:48;4.50;99.90
14737;DHT22;7459;53.590;10.062;2022-12-01T08:35:13;4.50;99.90
14737;DHT22;7459;53.590;10.062;2022-12-01T08:37:39;4.50;99.90
14737;DHT22;7459;53.590;10.062;2022-12-01T08:40:05;4.50;99.90
14737;DHT22;7459;53.590;10.062;2022-12-01T08:42:31;4.50;99.90
14737;DHT22;7459;53.590;10.062;2022-12-01T08:44:57;4.50;99.90
14737;DHT22;7459;53.590;10.062;2022-12-01T08:47:23;4.50;99.90
14737;DHT22;7459;53.590;10.062;2022-12-01T08:49:48;4.50;99.90
14737;DHT22;7459;53.590;10.062;2022-12-01T08:52:14;4.50;99.90
14737;DHT22;7459;53.590;10.062;2022-12-01T08:54:40;4.50;99.90
14737;DHT22;7459;53.590;10.062;2022-12-01T08:57:06;4.50;99.90
14737;DHT22;7459;53.590;10.062;2022-12-01T08:59:31;4.60;99.90
14737;DHT22;7459;53.590;10.062;2022-12-01T09:01:57;4.50;99.90
14737;DHT22;7459;53.590;10.062;2022-12-01T09:04:26;4.60;99.90
14737;DHT22;7459;53.590;10.062;2022-12-01T09:06:53;4.60;99.90
14737;DHT22;7459;53.590;10.062;2022-12-01T09:09:23;4.50;99.90
14737;DHT22;7459;53.590;10.062;2022-12-01T09:11:50;4.50;99.90
14737;DHT22;7459;53.590;10.062;2022-12-01T09:14:20;4.50;99.90
14737;DHT22;7459;53.590;10.062;2022-12-01T09:16:48;4.50;99.90
14737;DHT22;7459;53.590;10.062;2022-12-01T09:19:15;4.50;99.90
14737;DHT22;7459;53.590;10.062;2022-12-01T09:21:42;4.50;99.90
14737;DHT22;7459;53.590;10.062;2022-12-01T09:24:09;4.50;99.90
14737;DHT22;7459;53.590;10.062;2022-12-01T09:26:36;4.50;99.90
14737;DHT22;7459;53.590;10.062;2022-12-01T09:29:05;4.50;99.90
14737;DHT22;7459;53.590;10.062;2022-12-01T09:31:35;4.50;99.90
14737;DHT22;7459;53.590;10.062;2022-12-01T09:34:04;4.50;99.90
14737;DHT22;7459;53.590;10.062;2022-12-01T09:36:33;4.50;99.90
14737;DHT22;7459;53.590;10.062;2022-12-01T09:38:59;4.50;99.90
14737;DHT22;7459;53.590;10.062;2022-12-01T09:41:29;4.50;99.90
14737;DHT22;7459;53.590;10.062;2022-12-01T09:46:45;4.50;99.90
14737;DHT22;7459;53.590;10.062;2022-12-01T09:52:26;4.50;99.90
14737;DHT22;7459;53.590;10.062;2022-12-01T09:54:59;4.50;99.90
14737;DHT22;7459;53.590;10.062;2022-12-01T09:57:34;4.50;99.90
14737;DHT22;7459;53.590;10.062;2022-12-01T10:02:46;4.50;99.90
14737;DHT22;7459;53.590;10.062;2022-12-01T10:05:21;4.50;99.90
14737;DHT22;7459;53.590;10.062;2022-12-01T10:08:01;4.60;99.90
14737;DHT22;7459;53.590;10.062;2022-12-01T10:10:35;4.60;99.90
14737;DHT22;7459;53.590;10.062;2022-12-01T10:13:18;4.50;99.90
14737;DHT22;7459;53.590;10.062;2022-12-01T10:16:13;4.50;99.90
14737;DHT22;7459;53.590;10.062;2022-12-01T10:18:52;4.50;99.90
14737;DHT22;7459;53.590;10.062;2022-12-01T10:27:20;4.40;99.90
14737;DHT22;7459;53.590;10.062;2022-12-01T10:35:30;4.40;99.90
14737;DHT22;7459;53.590;10.062;2022-12-01T10:38:04;4.40;99.90
14737;DHT22;7459;53.590;10.062;2022-12-01T10:40:34;4.40;99.90
14737;DHT22;7459;53.590;10.062;2022-12-01T10:43:01;4.40;99.90
14737;DHT22;7459;53.590;10.062;2022-12-01T10:45:30;4.40;99.90
14737;DHT22;7459;53.590;10.062;2022-12-01T10:48:19;4.40;99.90
14737;DHT22;7459;53.590;10.062;2022-12-01T10:50:54;4.40;99.90
14737;DHT22;7459;53.590;10.062;2022-12-01T10:53:32;4.30;99.90
14737;DHT22;7459;53.590;10.062;2022-12-01T10:56:14;4.30;99.90
14737;DHT22;7459;53.590;10.062;2022-12-01T10:58:56;4.30;99.90
14737;DHT22;7459;53.590;10.062;2022-12-01T11:01:30;4.20;99.90
14737;DHT22;7459;53.590;10.062;2022-12-01T11:06:31;4.20;99.90
14737;DHT22;7459;53.590;10.062;2022-12-01T11:09:03;4.20;99.90
14737;DHT22;7459;53.590;10.062;2022-12-01T11:11:31;4.20;99.90
14737;DHT22;7459;53.590;10.062;2022-12-01T11:14:01;4.20;99.90
14737;DHT22;7459;53.590;10.062;2022-12-01T11:16:46;4.10;99.90
14737;DHT22;7459;53.590;10.062;2022-12-01T11:19:32;4.10;99.90
14737;DHT22;7459;53.590;10.062;2022-12-01T11:22:01;4.10;99.90
14737;DHT22;7459;53.590;10.062;2022-12-01T11:24:44;4.10;99.90
14737;DHT22;7459;53.590;10.062;2022-12-01T11:27:21;4.10;99.90
14737;DHT22;7459;53.590;10.062;2022-12-01T11:30:19;4.10;99.90
14737;DHT22;7459;53.590;10.062;2022-12-01T11:32:59;4.00;99.90
14737;DHT22;7459;53.590;10.062;2022-12-01T11:35:35;4.00;99.90
14737;DHT22;7459;53.590;10.062;2022-12-01T11:38:04;4.00;99.90
14737;DHT22;7459;53.590;10.062;2022-12-01T11:40:51;4.00;99.90
14737;DHT22;7459;53.590;10.062;2022-12-01T11:43:34;4.00;99.90
14737;DHT22;7459;53.590;10.062;2022-12-01T11:46:06;4.00;99.90
14737;DHT22;7459;53.590;10.062;2022-12-01T11:48:33;4.00;99.90
14737;DHT22;7459;53.590;10.062;2022-12-01T11:53:35;4.00;99.90
14737;DHT22;7459;53.590;10.062;2022-12-01T11:56:13;4.00;99.90
14737;DHT22;7459;53.590;10.062;2022-12-01T11:58:42;4.00;99.90
14737;DHT22;7459;53.590;10.062;2022-12-01T12:07:09;4.00;99.90
14737;DHT22;7459;53.590;10.062;2022-12-01T12:12:51;4.00;99.90
14737;DHT22;7459;53.590;10.062;2022-12-01T12:21:33;4.00;99.90
14737;DHT22;7459;53.590;10.062;2022-12-01T12:27:11;4.00;99.90
14737;DHT22;7459;53.590;10.062;2022-12-01T12:35:37;3.90;99.90
14737;DHT22;7459;53.590;10.062;2022-12-01T12:38:34;3.90;99.90
14737;DHT22;7459;53.590;10.062;2022-12-01T12:47:32;3.90;99.90
14737;DHT22;7459;53.590;10.062;2022-12-01T12:53:00;3.90;99.90
14737;DHT22;7459;53.590;10.062;2022-12-01T12:55:40;3.90;99.90
14737;DHT22;7459;53.590;10.062;2022-12-01T12:58:23;3.80;99.90
14737;DHT22;7459;53.590;10.062;2022-12-01T13:01:12;3.90;99.90
14737;DHT22;7459;53.590;10.062;2022-12-01T13:07:27;3.80;99.90
14737;DHT22;7459;53.590;10.062;2022-12-01T13:10:49;3.80;99.90
14737;DHT22;7459;53.590;10.062;2022-12-01T13:13:34;3.80;99.90
14737;DHT22;7459;53.590;10.062;2022-12-01T13:16:08;3.80;99.90
14737;DHT22;7459;53.590;10.062;2022-12-01T13:18:40;3.80;99.90
14737;DHT22;7459;53.590;10.062;2022-12-01T13:21:19;3.80;99.90
14737;DHT22;7459;53.590;10.062;2022-12-01T13:23:48;3.80;99.90
14737;DHT22;7459;53.590;10.062;2022-12-01T13:26:17;3.80;99.90
14737;DHT22;7459;53.590;10.062;2022-12-01T13:28:55;3.80;99.90
14737;DHT22;7459;53.590;10.062;2022-12-01T13:31:22;3.80;99.90
14737;DHT22;7459;53.590;10.062;2022-12-01T13:33:58;3.70;99.90
14737;DHT22;7459;53.590;10.062;2022-12-01T13:36:26;3.80;99.90
14737;DHT22;7459;53.590;10.062;2022-12-01T13:39:02;3.80;99.90
14737;DHT22;7459;53.590;10.062;2022-12-01T13:41:37;3.70;99.90
14737;DHT22;7459;53.590;10.062;2022-12-01T13:44:22;3.70;99.90
14737;DHT22;7459;53.590;10.062;2022-12-01T13:47:30;3.70;99.90
14737;DHT22;7459;53.590;10.062;2022-12-01T14:09:00;3.80;99.90
14737;DHT22;7459;53.590;10.062;2022-12-01T14:11:29;3.80;99.90
14737;DHT22;7459;53.590;10.062;2022-12-01T14:14:02;3.80;99.90
14737;DHT22;7459;53.590;10.062;2022-12-01T14:17:02;3.80;99.90
14737;DHT22;7459;53.590;10.062;2022-12-01T14:19:46;3.80;99.90
14737;DHT22;7459;53.590;10.062;2022-12-01T14:22:37;3.80;99.90
14737;DHT22;7459;53.590;10.062;2022-12-01T14:25:21;3.80;99.90
14737;DHT22;7459;53.590;10.062;2022-12-01T14:27:56;3.70;99.90
14737;DHT22;7459;53.590;10.062;2022-12-01T14:36:29;3.80;99.90
14737;DHT22;7459;53.590;10.062;2022-12-01T14:39:21;3.70;99.90
14737;DHT22;7459;53.590;10.062;2022-12-01T14:44:48;3.80;99.90
14737;DHT22;7459;53.590;10.062;2022-12-01T14:47:24;3.70;99.90
14737;DHT22;7459;53.590;10.062;2022-12-01T14:50:00;3.70;99.90
14737;DHT22;7459;53.590;10.062;2022-12-01T14:52:35;3.70;99.90
14737;DHT22;7459;53.590;10.062;2022-12-01T14:55:15;3.70;99.90
14737;DHT22;7459;53.590;10.062;2022-12-01T14:57:49;3.70;99.90
14737;DHT22;7459;53.590;10.062;2022-12-01T15:00:20;3.70;99.90
14737;DHT22;7459;53.590;10.062;2022-12-01T15:02:54;3.80;99.90
14737;DHT22;7459;53.590;10.062;2022-12-01T15:05:23;3.80;99.90
14737;DHT22;7459;53.590;10.062;2022-12-01T15:07:54;3.80;99.90
14737;DHT22;7459;53.590;10.062;2022-12-01T15:10:26;3.80;99.90
14737;DHT22;7459;53.590;10.062;2022-12-01T15:13:19;3.80;99.90
14737;DHT22;7459;53.590;10.062;2022-12-01T15:15:55;3.80;99.90
14737;DHT22;7459;53.590;10.062;2022-12-01T15:18:33;3.80;99.90
14737;DHT22;7459;53.590;10.062;2022-12-01T15:21:17;3.80;99.90
14737;DHT22;7459;53.590;10.062;2022-12-01T15:24:04;3.80;99.90
14737;DHT22;7459;53.590;10.062;2022-12-01T15:26:50;3.80;99.90
14737;DHT22;7459;53.590;10.062;2022-12-01T15:29:24;3.70;99.90
14737;DHT22;7459;53.590;10.062;2022-12-01T15:34:40;3.80;99.90
14737;DHT22;7459;53.590;10.062;2022-12-01T15:37:26;3.70;99.90
14737;DHT22;7459;53.590;10.062;2022-12-01T15:40:04;3.70;99.90
14737;DHT22;7459;53.590;10.062;2022-12-01T15:42:35;3.70;99.90
14737;DHT22;7459;53.590;10.062;2022-12-01T15:47:48;3.70;99.90
14737;DHT22;7459;53.590;10.062;2022-12-01T15:50:36;3.80;99.90
14737;DHT22;7459;53.590;10.062;2022-12-01T15:53:06;3.80;99.90
14737;DHT22;7459;53.590;10.062;2022-12-01T15:55:45;3.80;99.90
14737;DHT22;7459;53.590;10.062;2022-12-01T15:58:20;3.80;99.90
14737;DHT22;7459;53.590;10.062;2022-12-01T16:01:00;3.80;99.90
14737;DHT22;7459;53.590;10.062;2022-12-01T16:03:28;3.80;99.90
14737;DHT22;7459;53.590;10.062;2022-12-01T16:05:54;3.70;99.90
14737;DHT22;7459;53.590;10.062;2022-12-01T16:08:27;3.80;99.90
14737;DHT22;7459;53.590;10.062;2022-12-01T16:11:14;3.80;99.90
14737;DHT22;7459;53.590;10.062;2022-12-01T16:13:47;3.80;99.90
14737;DHT22;7459;53.590;10.062;2022-12-01T16:16:36;3.80;99.90
14737;DHT22;7459;53.590;10.062;2022-12-01T16:19:18;3.80;99.90
14737;DHT22;7459;53.590;10.062;2022-12-01T16:21:49;3.80;99.90
14737;DHT22;7459;53.590;10.062;2022-12-01T16:24:20;3.80;99.90
14737;DHT22;7459;53.590;10.062;2022-12-01T16:26:57;3.80;99.90
14737;DHT22;7459;53.590;10.062;2022-12-01T16:29:26;3.80;99.90
14737;DHT22;7459;53.590;10.062;2022-12-01T16:31:54;3.70;99.90
14737;DHT22;7459;53.590;10.062;2022-12-01T16:34:22;3.80;99.90
14737;DHT22;7459;53.590;10.062;2022-12-01T16:36:48;3.70;99.90
14737;DHT22;7459;53.590;10.062;2022-12-01T16:39:14;3.70;99.90
14737;DHT22;7459;53.590;10.062;2022-12-01T16:41:41;3.70;99.90
14737;DHT22;7459;53.590;10.062;2022-12-01T16:44:15;3.70;99.90
14737;DHT22;7459;53.590;10.062;2022-12-01T16:46:41;3.70;99.90
14737;DHT22;7459;53.590;10.062;2022-12-01T16:49:07;3.80;99.90
14737;DHT22;7459;53.590;10.062;2022-12-01T16:51:36;3.80;99.90
14737;DHT22;7459;53.590;10.062;2022-12-01T16:54:02;3.70;99.90
14737;DHT22;7459;53.590;10.062;2022-12-01T16:56:30;3.80;99.90
14737;DHT22;7459;53.590;10.062;2022-12-01T16:58:56;3.70;99.90
14737;DHT22;7459;53.590;10.062;2022-12-01T17:01:22;3.70;99.90
14737;DHT22;7459;53.590;10.062;2022-12-01T17:03:48;3.70;99.90
14737;DHT22;7459;53.590;10.062;2022-12-01T17:06:18;3.70;99.90
14737;DHT22;7459;53.590;10.062;2022-12-01T17:08:44;3.70;99.90
14737;DHT22;7459;53.590;10.062;2022-12-01T17:11:10;3.70;99.90
14737;DHT22;7459;53.590;10.062;2022-12-01T17:13:36;3.70;99.90
14737;DHT22;7459;53.590;10.062;2022-12-01T17:16:04;3.80;99.90
14737;DHT22;7459;53.590;10.062;2022-12-01T17:18:34;3.90;99.90
14737;DHT22;7459;53.590;10.062;2022-12-01T17:21:06;3.90;99.90
14737;DHT22;7459;53.590;10.062;2022-12-01T17:23:34;4.00;99.90
14737;DHT22;7459;53.590;10.062;2022-12-01T17:26:06;4.10;99.90
14737;DHT22;7459;53.590;10.062;2022-12-01T17:28:34;4.20;99.90
14737;DHT22;7459;53.590;10.062;2022-12-01T17:31:01;4.20;99.90
14737;DHT22;7459;53.590;10.062;2022-12-01T17:33:27;4.30;99.90
14737;DHT22;7459;53.590;10.062;2022-12-01T17:35:53;4.30;99.90
14737;DHT22;7459;53.590;10.062;2022-12-01T17:38:19;4.40;99.90
14737;DHT22;7459;53.590;10.062;2022-12-01T17:40:44;4.40;99.90
14737;DHT22;7459;53.590;10.062;2022-12-01T17:43:11;4.40;99.90
14737;DHT22;7459;53.590;10.062;2022-12-01T17:45:36;4.50;99.90
14737;DHT22;7459;53.590;10.062;2022-12-01T17:48:06;4.50;99.90
14737;DHT22;7459;53.590;10.062;2022-12-01T17:50:33;4.50;99.90
14737;DHT22;7459;53.590;10.062;2022-12-01T17:52:58;4.50;99.90
14737;DHT22;7459;53.590;10.062;2022-12-01T17:55:24;4.30;99.90
14737;DHT22;7459;53.590;10.062;2022-12-01T17:57:50;4.20;99.90
14737;DHT22;7459;53.590;10.062;2022-12-01T18:00:16;4.10;99.90
14737;DHT22;7459;53.590;10.062;2022-12-01T18:02:42;4.00;99.90
14737;DHT22;7459;53.590;10.062;2022-12-01T18:05:08;4.00;99.90
14737;DHT22;7459;53.590;10.062;2022-12-01T18:07:33;3.90;99.90
14737;DHT22;7459;53.590;10.062;2022-12-01T18:09:59;3.90;99.90
14737;DHT22;7459;53.590;10.062;2022-12-01T18:12:25;3.80;99.90
14737;DHT22;7459;53.590;10.062;2022-12-01T18:14:50;3.80;99.90
14737;DHT22;7459;53.590;10.062;2022-12-01T18:17:16;3.70;99.90
14737;DHT22;7459;53.590;10.062;2022-12-01T18:19:42;3.70;99.90